createdAt,value
2019-04-28T00:00:04.909Z,12.62
2019-04-28T00:01:04.928Z,12.65
2019-04-28T00:02:04.890Z,12.64
2019-04-28T00:03:04.880Z,12.67
2019-04-28T00:04:04.870Z,12.62
2019-04-28T00:05:04.855Z,12.54
2019-04-28T00:06:04.879Z,12.50
2019-04-28T00:07:04.833Z,12.59
2019-04-28T00:08:04.816Z,12.47
2019-04-28T00:09:04.817Z,12.47
2019-04-28T00:10:04.807Z,12.39
2019-04-28T00:11:04.826Z,12.31
2019-04-28T00:12:04.773Z,12.35
2019-04-28T00:13:04.763Z,12.39
2019-04-28T00:14:04.754Z,12.42
2019-04-28T00:15:04.746Z,12.46
2019-04-28T00:16:04.738Z,12.42
2019-04-28T00:17:04.750Z,12.46
2019-04-28T00:18:04.709Z,12.42
2019-04-28T00:19:04.717Z,12.35
2019-04-28T00:20:04.689Z,12.41
2019-04-28T00:21:04.677Z,12.41
2019-04-28T00:22:04.697Z,12.39
2019-04-28T00:23:06.991Z,12.35
2019-04-28T00:24:04.640Z,12.27
2019-04-28T00:25:04.632Z,12.21
2019-04-28T00:26:04.657Z,12.19
2019-04-28T00:27:04.649Z,12.23
2019-04-28T00:28:04.596Z,12.16
2019-04-28T00:29:04.597Z,12.21
2019-04-28T00:30:04.582Z,12.23
2019-04-28T00:31:04.570Z,12.29
2019-04-28T00:32:04.594Z,12.29
2019-04-28T00:33:04.549Z,12.29
2019-04-28T00:34:04.531Z,12.34
2019-04-28T00:35:04.524Z,12.38
2019-04-28T00:36:04.520Z,12.45
2019-04-28T00:37:04.530Z,12.37
2019-04-28T00:38:04.489Z,12.39
2019-04-28T00:39:04.487Z,12.31
2019-04-28T00:40:04.476Z,12.31
2019-04-28T00:41:04.461Z,12.20
2019-04-28T00:42:04.479Z,12.13
2019-04-28T00:43:04.437Z,12.07
2019-04-28T00:44:04.423Z,11.94
2019-04-28T00:45:04.419Z,11.95
2019-04-28T00:46:04.409Z,11.91
2019-04-28T00:47:04.473Z,11.82
2019-04-28T00:48:04.379Z,11.80
2019-04-28T00:49:04.386Z,11.82
2019-04-28T00:50:04.378Z,11.82
2019-04-28T00:51:04.346Z,11.75
2019-04-28T00:52:04.393Z,11.78
2019-04-28T00:53:04.330Z,11.67
2019-04-28T00:54:04.327Z,11.67
2019-04-28T00:55:04.309Z,11.72
2019-04-28T00:56:04.299Z,11.79
2019-04-28T00:57:04.331Z,11.64
2019-04-28T00:58:04.269Z,11.72
2019-04-28T00:59:04.267Z,11.69
2019-04-28T01:00:04.256Z,11.70
2019-04-28T01:01:04.242Z,11.67
2019-04-28T01:02:04.230Z,11.70
2019-04-28T01:03:04.256Z,11.75
2019-04-28T01:04:04.220Z,11.67
2019-04-28T01:05:04.195Z,11.67
2019-04-28T01:06:04.178Z,11.62
2019-04-28T01:07:04.178Z,11.65
2019-04-28T01:08:04.190Z,11.57
2019-04-28T01:09:04.167Z,11.60
2019-04-28T01:10:04.144Z,11.57
2019-04-28T01:11:04.127Z,11.58
2019-04-28T01:12:04.126Z,11.55
2019-04-28T01:13:04.140Z,11.57
2019-04-28T01:14:04.104Z,11.67
2019-04-28T01:15:04.910Z,11.55
2019-04-28T01:16:04.073Z,11.60
2019-04-28T01:17:04.057Z,11.58
2019-04-28T01:18:04.099Z,11.51
2019-04-28T01:19:04.039Z,11.54
2019-04-28T01:20:04.066Z,11.57
2019-04-28T01:21:04.024Z,11.49
2019-04-28T01:22:04.007Z,11.44
2019-04-28T01:23:04.103Z,11.43
2019-04-28T01:24:04.002Z,11.40
2019-04-28T01:25:03.973Z,11.51
2019-04-28T01:26:03.970Z,11.49
2019-04-28T01:27:03.954Z,11.43
2019-04-28T01:28:04.054Z,11.44
2019-04-28T01:29:03.927Z,11.44
2019-04-28T01:30:10.619Z,11.51
2019-04-28T01:31:04.910Z,11.39
2019-04-28T01:32:03.887Z,11.46
2019-04-28T01:33:03.916Z,11.47
2019-04-28T01:34:03.897Z,11.49
2019-04-28T01:35:03.872Z,11.57
2019-04-28T01:36:03.847Z,11.47
2019-04-28T01:37:03.839Z,11.43
2019-04-28T01:38:03.856Z,11.37
2019-04-28T01:39:03.815Z,11.32
2019-04-28T01:40:03.802Z,11.37
2019-04-28T01:41:03.805Z,11.39
2019-04-28T01:42:03.776Z,11.27
2019-04-28T01:43:03.833Z,11.29
2019-04-28T01:44:03.775Z,11.22
2019-04-28T01:45:03.747Z,11.27
2019-04-28T01:46:03.740Z,11.22
2019-04-28T01:47:03.723Z,11.24
2019-04-28T01:48:03.755Z,11.25
2019-04-28T01:49:03.711Z,11.29
2019-04-28T01:50:03.705Z,11.29
2019-04-28T01:51:03.692Z,11.35
2019-04-28T01:52:03.687Z,11.33
2019-04-28T01:53:03.689Z,11.25
2019-04-28T01:54:03.650Z,11.24
2019-04-28T01:55:03.644Z,11.24
2019-04-28T01:56:03.619Z,11.27
2019-04-28T01:57:03.614Z,11.19
2019-04-28T01:58:03.612Z,11.24
2019-04-28T01:59:03.623Z,11.32
2019-04-28T02:00:03.572Z,11.28
2019-04-28T02:01:03.582Z,11.29
2019-04-28T02:02:03.560Z,11.32
2019-04-28T02:03:03.553Z,11.35
2019-04-28T02:04:03.590Z,11.35
2019-04-28T02:05:03.527Z,11.37
2019-04-28T02:06:03.525Z,11.33
2019-04-28T02:07:03.511Z,11.35
2019-04-28T02:08:03.488Z,11.40
2019-04-28T02:09:03.520Z,11.36
2019-04-28T02:10:25.888Z,11.36
2019-04-28T02:11:03.450Z,11.15
2019-04-28T02:12:03.451Z,11.25
2019-04-28T02:13:03.442Z,11.28
2019-04-28T02:14:03.473Z,11.22
2019-04-28T02:15:03.446Z,11.19
2019-04-28T02:16:03.400Z,11.21
2019-04-28T02:17:03.392Z,11.15
2019-04-28T02:18:03.392Z,11.17
2019-04-28T02:19:03.417Z,11.06
2019-04-28T02:20:03.373Z,11.14
2019-04-28T02:21:03.366Z,11.04
2019-04-28T02:22:03.328Z,11.17
2019-04-28T02:23:03.339Z,11.10
2019-04-28T02:24:03.343Z,10.96
2019-04-28T02:25:03.313Z,10.94
2019-04-28T02:26:03.295Z,10.94
2019-04-28T02:27:03.281Z,10.97
2019-04-28T02:28:03.270Z,10.99
2019-04-28T02:29:03.285Z,10.94
2019-04-28T02:30:03.243Z,10.94
2019-04-28T02:31:03.235Z,10.94
2019-04-28T02:32:03.223Z,10.85
2019-04-28T02:33:03.208Z,10.92
2019-04-28T02:34:03.255Z,10.79
2019-04-28T02:35:03.184Z,10.81
2019-04-28T02:36:03.173Z,10.85
2019-04-28T02:37:03.186Z,10.85
2019-04-28T02:38:03.159Z,10.79
2019-04-28T02:39:03.190Z,10.91
2019-04-28T02:40:03.864Z,10.85
2019-04-28T02:41:03.124Z,10.88
2019-04-28T02:42:03.111Z,10.81
2019-04-28T02:43:03.093Z,10.82
2019-04-28T02:44:03.098Z,10.76
2019-04-28T02:45:03.118Z,10.81
2019-04-28T02:46:03.066Z,10.71
2019-04-28T02:47:03.053Z,10.74
2019-04-28T02:48:03.077Z,10.70
2019-04-28T02:49:03.030Z,10.66
2019-04-28T02:50:03.084Z,10.68
2019-04-28T02:51:03.044Z,10.64
2019-04-28T02:52:03.308Z,10.71
2019-04-28T02:53:02.981Z,10.79
2019-04-28T02:54:02.966Z,10.76
2019-04-28T02:55:03.781Z,10.70
2019-04-28T02:56:02.944Z,10.60
2019-04-28T02:57:02.934Z,10.56
2019-04-28T02:58:02.937Z,10.48
2019-04-28T02:59:02.933Z,10.55
2019-04-28T03:00:02.941Z,10.55
2019-04-28T03:01:11.072Z,10.59
2019-04-28T03:02:03.884Z,10.53
2019-04-28T03:03:02.880Z,10.59
2019-04-28T03:04:02.861Z,10.41
2019-04-28T03:05:02.892Z,10.42
2019-04-28T03:06:02.847Z,10.47
2019-04-28T03:07:02.846Z,10.40
2019-04-28T03:08:02.819Z,10.42
2019-04-28T03:09:02.829Z,10.42
2019-04-28T03:10:03.895Z,10.47
2019-04-28T03:11:02.791Z,10.45
2019-04-28T03:12:02.769Z,10.44
2019-04-28T03:13:02.764Z,10.34
2019-04-28T03:14:02.747Z,10.40
2019-04-28T03:15:02.773Z,10.25
2019-04-28T03:16:02.726Z,10.29
2019-04-28T03:17:02.711Z,10.29
2019-04-28T03:18:02.713Z,10.33
2019-04-28T03:19:02.691Z,10.25
2019-04-28T03:20:02.710Z,10.26
2019-04-28T03:21:04.402Z,10.27
2019-04-28T03:22:02.672Z,10.23
2019-04-28T03:23:02.651Z,10.27
2019-04-28T03:24:02.639Z,10.23
2019-04-28T03:25:02.661Z,10.27
2019-04-28T03:26:02.608Z,10.29
2019-04-28T03:27:03.589Z,10.33
2019-04-28T03:28:02.609Z,10.33
2019-04-28T03:29:02.576Z,10.40
2019-04-28T03:30:02.574Z,10.52
2019-04-28T03:31:22.148Z,10.53
2019-04-28T03:32:28.473Z,10.52
2019-04-28T03:33:10.612Z,10.55
2019-04-28T03:34:04.631Z,10.53
2019-04-28T03:35:03.783Z,10.34
2019-04-28T03:36:07.490Z,10.32
2019-04-28T03:37:03.511Z,10.29
2019-04-28T03:38:02.479Z,10.22
2019-04-28T03:39:02.465Z,10.23
2019-04-28T03:40:02.448Z,10.29
2019-04-28T03:41:02.500Z,10.29
2019-04-28T03:42:02.426Z,10.36
2019-04-28T03:43:03.299Z,10.34
2019-04-28T03:44:02.412Z,10.29
2019-04-28T03:45:02.408Z,10.34
2019-04-28T03:46:03.552Z,10.33
2019-04-28T03:47:03.126Z,10.33
2019-04-28T03:48:02.382Z,10.38
2019-04-28T03:49:02.351Z,10.40
2019-04-28T03:50:02.350Z,10.34
2019-04-28T03:51:02.362Z,10.40
2019-04-28T03:52:02.316Z,10.29
2019-04-28T03:53:02.313Z,10.11
2019-04-28T03:54:03.018Z,10.09
2019-04-28T03:55:02.308Z,10.09
2019-04-28T03:56:02.339Z,10.07
2019-04-28T03:57:02.260Z,10.05
2019-04-28T03:58:02.282Z,10.07
2019-04-28T03:59:02.240Z,10.07
2019-04-28T04:00:02.231Z,9.97
2019-04-28T04:01:03.256Z,9.99
2019-04-28T04:02:03.410Z,9.96
2019-04-28T04:03:02.193Z,10.02
2019-04-28T04:04:03.579Z,10.07
2019-04-28T04:05:03.878Z,10.02
2019-04-28T04:06:02.176Z,10.05
2019-04-28T04:07:02.180Z,9.99
2019-04-28T04:08:02.137Z,9.96
2019-04-28T04:09:02.127Z,9.99
2019-04-28T04:10:02.116Z,9.91
2019-04-28T04:11:02.104Z,9.93
2019-04-28T04:12:03.566Z,9.90
2019-04-28T04:13:02.087Z,10.01
2019-04-28T04:14:02.125Z,9.97
2019-04-28T04:15:04.035Z,10.01
2019-04-28T04:16:02.059Z,9.97
2019-04-28T04:17:02.070Z,10.05
2019-04-28T04:18:02.022Z,9.99
2019-04-28T04:19:02.049Z,10.02
2019-04-28T04:20:02.071Z,9.94
2019-04-28T04:21:01.987Z,9.87
2019-04-28T04:22:02.017Z,9.87
2019-04-28T04:23:01.986Z,9.89
2019-04-28T04:24:01.960Z,9.93
2019-04-28T04:25:01.961Z,9.90
2019-04-28T04:26:02.032Z,9.89
2019-04-28T04:27:01.954Z,9.94
2019-04-28T04:28:03.789Z,9.93
2019-04-28T04:29:01.915Z,9.96
2019-04-28T04:30:02.131Z,9.99
2019-04-28T04:31:03.291Z,10.01
2019-04-28T04:32:11.604Z,10.04
2019-04-28T04:33:02.859Z,9.99
2019-04-28T04:34:03.265Z,9.99
2019-04-28T04:35:01.866Z,10.01
2019-04-28T04:36:01.958Z,10.02
2019-04-28T04:37:01.852Z,9.91
2019-04-28T04:38:01.803Z,9.96
2019-04-28T04:39:02.221Z,9.93
2019-04-28T04:40:01.938Z,9.97
2019-04-28T04:41:02.000Z,9.86
2019-04-28T04:42:01.806Z,9.87
2019-04-28T04:43:02.053Z,9.86
2019-04-28T04:44:01.754Z,9.86
2019-04-28T04:45:01.732Z,9.89
2019-04-28T04:46:01.726Z,9.86
2019-04-28T04:47:01.753Z,9.78
2019-04-28T04:48:01.691Z,9.75
2019-04-28T04:49:01.681Z,9.74
2019-04-28T04:50:01.671Z,9.71
2019-04-28T04:51:01.671Z,9.71
2019-04-28T04:52:01.682Z,9.68
2019-04-28T04:53:02.646Z,9.71
2019-04-28T04:54:01.626Z,9.68
2019-04-28T04:55:01.627Z,9.50
2019-04-28T04:56:01.612Z,9.50
2019-04-28T04:57:01.597Z,9.51
2019-04-28T04:58:01.637Z,9.42
2019-04-28T04:59:02.817Z,9.40
2019-04-28T05:00:01.586Z,9.42
2019-04-28T05:01:01.564Z,9.35
2019-04-28T05:02:02.023Z,9.43
2019-04-28T05:03:01.562Z,9.32
2019-04-28T05:04:01.521Z,9.38
2019-04-28T05:05:01.505Z,9.39
2019-04-28T05:06:01.492Z,9.39
2019-04-28T05:07:01.492Z,9.35
2019-04-28T05:08:01.501Z,9.35
2019-04-28T05:09:01.454Z,9.39
2019-04-28T05:10:01.466Z,9.43
2019-04-28T05:11:01.434Z,9.48
2019-04-28T05:12:01.421Z,9.48
2019-04-28T05:13:01.446Z,9.54
2019-04-28T05:14:01.409Z,9.48
2019-04-28T05:15:01.390Z,9.47
2019-04-28T05:16:01.377Z,9.48
2019-04-28T05:17:01.371Z,9.48
2019-04-28T05:18:01.404Z,9.50
2019-04-28T05:19:01.350Z,9.60
2019-04-28T05:20:01.577Z,9.58
2019-04-28T05:21:01.326Z,9.66
2019-04-28T05:22:01.314Z,9.68
2019-04-28T05:23:01.343Z,9.64
2019-04-28T05:24:01.289Z,9.71
2019-04-28T05:25:01.283Z,9.60
2019-04-28T05:26:07.863Z,9.58
2019-04-28T05:27:02.255Z,9.65
2019-04-28T05:28:02.949Z,9.71
2019-04-28T05:29:01.271Z,9.75
2019-04-28T05:30:04.379Z,9.78
2019-04-28T05:31:01.221Z,9.75
2019-04-28T05:32:03.278Z,9.72
2019-04-28T05:33:01.186Z,9.79
2019-04-28T05:34:04.189Z,9.74
2019-04-28T05:35:02.165Z,9.72
2019-04-28T05:36:03.065Z,9.72
2019-04-28T05:37:01.164Z,9.72
2019-04-28T05:38:01.140Z,9.86
2019-04-28T05:39:01.158Z,9.72
2019-04-28T05:40:01.117Z,9.83
2019-04-28T05:41:02.707Z,9.75
2019-04-28T05:42:01.164Z,9.78
2019-04-28T05:43:01.322Z,9.79
2019-04-28T05:44:01.110Z,9.74
2019-04-28T05:45:01.068Z,9.72
2019-04-28T05:46:01.044Z,9.72
2019-04-28T05:47:01.037Z,9.69
2019-04-28T05:48:01.026Z,9.74
2019-04-28T05:49:01.059Z,9.71
2019-04-28T05:50:01.008Z,9.71
2019-04-28T05:51:01.797Z,9.68
2019-04-28T05:52:00.982Z,9.79
2019-04-28T05:53:00.971Z,9.78
2019-04-28T05:54:00.993Z,9.79
2019-04-28T05:55:00.948Z,9.87
2019-04-28T05:56:00.967Z,9.69
2019-04-28T05:57:02.426Z,9.72
2019-04-28T05:58:00.913Z,9.75
2019-04-28T05:59:00.939Z,9.69
2019-04-28T06:00:03.314Z,9.74
2019-04-28T06:01:00.883Z,9.69
2019-04-28T06:02:00.865Z,9.72
2019-04-28T06:03:00.862Z,9.74
2019-04-28T06:04:01.020Z,9.74
2019-04-28T06:05:00.838Z,9.71
2019-04-28T06:06:00.837Z,9.72
2019-04-28T06:07:00.818Z,9.75
2019-04-28T06:08:00.825Z,9.64
2019-04-28T06:09:00.805Z,9.71
2019-04-28T06:10:00.814Z,9.61
2019-04-28T06:11:00.771Z,9.66
2019-04-28T06:12:00.758Z,9.74
2019-04-28T06:13:00.744Z,9.75
2019-04-28T06:14:00.739Z,9.71
2019-04-28T06:15:00.766Z,9.72
2019-04-28T06:16:00.727Z,9.79
2019-04-28T06:17:03.815Z,9.76
2019-04-28T06:18:00.691Z,9.71
2019-04-28T06:19:00.684Z,9.75
2019-04-28T06:20:00.714Z,9.72
2019-04-28T06:21:00.656Z,9.74
2019-04-28T06:22:00.648Z,9.75
2019-04-28T06:23:00.654Z,9.71
2019-04-28T06:24:00.623Z,9.81
2019-04-28T06:25:00.668Z,9.72
2019-04-28T06:26:00.611Z,9.75
2019-04-28T06:27:00.606Z,9.84
2019-04-28T06:28:00.605Z,9.87
2019-04-28T06:29:00.585Z,9.84
2019-04-28T06:30:00.633Z,9.90
2019-04-28T06:31:00.546Z,9.93
2019-04-28T06:32:00.541Z,9.94
2019-04-28T06:33:07.592Z,9.96
2019-04-28T06:34:01.516Z,9.96
2019-04-28T06:35:00.566Z,9.91
2019-04-28T06:36:00.500Z,9.93
2019-04-28T06:37:00.475Z,10.01
2019-04-28T06:38:00.475Z,10.01
2019-04-28T06:39:00.460Z,10.02
2019-04-28T06:40:00.489Z,10.12
2019-04-28T06:41:00.436Z,10.08
2019-04-28T06:42:00.439Z,10.09
2019-04-28T06:43:00.456Z,10.07
2019-04-28T06:44:00.416Z,10.15
2019-04-28T06:45:00.457Z,10.05
2019-04-28T06:46:00.395Z,10.20
2019-04-28T06:47:00.384Z,10.20
2019-04-28T06:48:00.360Z,10.17
2019-04-28T06:49:00.358Z,10.07
2019-04-28T06:50:00.438Z,10.04
2019-04-28T06:51:00.328Z,10.05
2019-04-28T06:52:00.317Z,10.09
2019-04-28T06:53:02.774Z,10.01
2019-04-28T06:54:00.306Z,10.11
2019-04-28T06:55:00.316Z,10.09
2019-04-28T06:56:00.312Z,10.14
2019-04-28T06:57:00.253Z,10.22
2019-04-28T06:58:00.252Z,10.17
2019-04-28T06:59:00.249Z,10.15
2019-04-28T07:00:00.232Z,10.17
2019-04-28T07:01:00.250Z,10.14
2019-04-28T07:02:00.208Z,10.07
2019-04-28T07:03:00.193Z,10.11
2019-04-28T07:04:00.179Z,10.17
2019-04-28T07:05:01.908Z,10.18
2019-04-28T07:06:00.192Z,10.20
2019-04-28T07:07:00.152Z,10.26
2019-04-28T07:08:00.141Z,10.18
2019-04-28T07:09:00.136Z,10.12
2019-04-28T07:10:00.120Z,10.15
2019-04-28T07:11:00.126Z,10.07
2019-04-28T07:12:00.084Z,10.12
2019-04-28T07:13:00.073Z,10.05
2019-04-28T07:14:00.063Z,10.11
2019-04-28T07:15:00.049Z,10.04
2019-04-28T07:16:00.073Z,10.22
2019-04-28T07:17:00.034Z,10.23
2019-04-28T07:18:00.029Z,10.33
2019-04-28T07:19:00.031Z,10.18
2019-04-28T07:20:00.001Z,10.29
2019-04-28T07:21:00.023Z,10.26
2019-04-28T07:21:59.972Z,10.26
2019-04-28T07:22:59.968Z,10.23
2019-04-28T07:23:59.946Z,10.25
2019-04-28T07:24:59.943Z,10.20
2019-04-28T07:25:59.960Z,10.23
2019-04-28T07:26:59.916Z,10.32
2019-04-28T07:27:59.911Z,10.38
2019-04-28T07:28:59.897Z,10.51
2019-04-28T07:29:59.893Z,10.44
2019-04-28T07:30:59.925Z,10.48
2019-04-28T07:31:59.856Z,10.48
2019-04-28T07:32:59.845Z,10.51
2019-04-28T07:33:59.851Z,10.59
2019-04-28T07:34:59.834Z,10.55
2019-04-28T07:35:59.883Z,10.60
2019-04-28T07:36:59.816Z,10.70
2019-04-28T07:37:59.816Z,10.68
2019-04-28T07:38:59.784Z,10.70
2019-04-28T07:39:59.773Z,10.64
2019-04-28T07:40:59.789Z,10.61
2019-04-28T07:41:59.755Z,10.59
2019-04-28T07:42:59.771Z,10.60
2019-04-28T07:43:59.721Z,10.64
2019-04-28T07:44:59.718Z,10.70
2019-04-28T07:45:59.704Z,10.70
2019-04-28T07:46:59.739Z,10.67
2019-04-28T07:47:59.736Z,10.61
2019-04-28T07:48:59.670Z,10.59
2019-04-28T07:49:59.659Z,10.53
2019-04-28T07:50:59.647Z,10.47
2019-04-28T07:51:59.670Z,10.44
2019-04-28T07:52:59.626Z,10.47
2019-04-28T07:54:02.344Z,10.52
2019-04-28T07:55:00.605Z,10.52
2019-04-28T07:55:59.598Z,10.64
2019-04-28T07:56:59.608Z,10.67
2019-04-28T07:57:59.567Z,10.73
2019-04-28T07:58:59.555Z,10.66
2019-04-28T07:59:59.539Z,10.76
2019-04-28T08:00:59.553Z,10.56
2019-04-28T08:01:59.553Z,10.41
2019-04-28T08:02:59.524Z,10.48
2019-04-28T08:03:59.509Z,10.44
2019-04-28T08:04:59.493Z,10.47
2019-04-28T08:05:59.495Z,10.41
2019-04-28T08:06:59.498Z,10.40
2019-04-28T08:07:59.500Z,10.53
2019-04-28T08:09:02.303Z,10.44
2019-04-28T08:09:59.440Z,10.47
2019-04-28T08:10:59.422Z,10.44
2019-04-28T08:11:59.443Z,10.52
2019-04-28T08:12:59.402Z,10.47
2019-04-28T08:13:59.386Z,10.47
2019-04-28T08:14:59.375Z,10.51
2019-04-28T08:15:59.368Z,10.48
2019-04-28T08:16:59.395Z,10.48
2019-04-28T08:17:59.347Z,10.47
2019-04-28T08:18:59.333Z,10.52
2019-04-28T08:19:59.320Z,10.53
2019-04-28T08:20:59.305Z,10.61
2019-04-28T08:21:59.327Z,10.59
2019-04-28T08:22:59.305Z,10.59
2019-04-28T08:23:59.293Z,10.56
2019-04-28T08:24:59.281Z,10.56
2019-04-28T08:25:59.257Z,10.59
2019-04-28T08:26:59.280Z,10.51
2019-04-28T08:27:59.247Z,10.61
2019-04-28T08:28:59.217Z,10.67
2019-04-28T08:29:59.202Z,10.70
2019-04-28T08:30:59.202Z,10.56
2019-04-28T08:31:59.218Z,10.66
2019-04-28T08:32:59.181Z,10.66
2019-04-28T08:34:02.586Z,10.55
2019-04-28T08:34:59.155Z,10.55
2019-04-28T08:35:59.147Z,10.60
2019-04-28T08:36:59.154Z,10.61
2019-04-28T08:37:59.121Z,10.68
2019-04-28T08:38:59.105Z,10.67
2019-04-28T08:39:59.092Z,10.68
2019-04-28T08:40:59.075Z,10.78
2019-04-28T08:41:59.123Z,10.68
2019-04-28T08:42:59.054Z,10.78
2019-04-28T08:43:59.049Z,10.73
2019-04-28T08:44:59.043Z,10.71
2019-04-28T08:45:59.030Z,10.63
2019-04-28T08:46:59.006Z,10.60
2019-04-28T08:47:59.043Z,10.53
2019-04-28T08:48:58.988Z,10.47
2019-04-28T08:49:58.975Z,10.53
2019-04-28T08:50:58.966Z,10.59
2019-04-28T08:51:58.969Z,10.68
2019-04-28T08:52:58.982Z,10.67
2019-04-28T08:53:58.934Z,10.59
2019-04-28T08:54:58.916Z,10.41
2019-04-28T08:55:58.906Z,10.47
2019-04-28T08:56:58.900Z,10.52
2019-04-28T08:57:58.930Z,10.51
2019-04-28T08:58:58.878Z,10.55
2019-04-28T08:59:58.870Z,10.53
2019-04-28T09:00:58.853Z,10.42
2019-04-28T09:01:58.853Z,10.51
2019-04-28T09:02:58.861Z,10.42
2019-04-28T09:03:58.820Z,10.40
2019-04-28T09:04:58.821Z,10.47
2019-04-28T09:06:01.376Z,10.42
2019-04-28T09:06:58.795Z,10.52
2019-04-28T09:07:58.841Z,10.61
2019-04-28T09:08:58.761Z,10.68
2019-04-28T09:09:58.753Z,10.63
2019-04-28T09:10:58.743Z,10.71
2019-04-28T09:11:58.729Z,10.79
2019-04-28T09:12:58.746Z,10.92
2019-04-28T09:13:58.742Z,10.84
2019-04-28T09:14:58.691Z,10.92
2019-04-28T09:15:58.685Z,10.85
2019-04-28T09:16:58.695Z,10.97
2019-04-28T09:17:58.717Z,10.97
2019-04-28T09:18:58.646Z,11.04
2019-04-28T09:19:58.642Z,11.06
2019-04-28T09:20:58.629Z,11.17
2019-04-28T09:21:58.613Z,11.22
2019-04-28T09:22:58.641Z,11.42
2019-04-28T09:23:58.599Z,11.42
2019-04-28T09:24:58.580Z,11.65
2019-04-28T09:25:58.577Z,11.73
2019-04-28T09:26:58.559Z,11.83
2019-04-28T09:27:58.580Z,12.04
2019-04-28T09:28:58.537Z,12.17
2019-04-28T09:29:58.528Z,12.27
2019-04-28T09:30:58.519Z,12.13
2019-04-28T09:31:58.512Z,12.19
2019-04-28T09:32:58.526Z,12.13
2019-04-28T09:33:58.485Z,12.27
2019-04-28T09:34:58.474Z,12.28
2019-04-28T09:35:58.459Z,12.32
2019-04-28T09:36:58.444Z,12.27
2019-04-28T09:37:58.474Z,12.29
2019-04-28T09:38:59.143Z,12.31
2019-04-28T09:39:58.428Z,12.41
2019-04-28T09:40:58.402Z,12.52
2019-04-28T09:41:58.392Z,12.60
2019-04-28T09:42:58.412Z,12.57
2019-04-28T09:43:58.364Z,12.52
2019-04-28T09:45:01.128Z,12.59
2019-04-28T09:45:58.351Z,12.50
2019-04-28T09:46:58.343Z,12.39
2019-04-28T09:47:58.355Z,12.49
2019-04-28T09:48:58.311Z,12.53
2019-04-28T09:49:58.301Z,12.46
2019-04-28T09:50:58.285Z,12.46
2019-04-28T09:51:58.279Z,12.37
2019-04-28T09:52:58.302Z,12.37
2019-04-28T09:53:58.253Z,12.34
2019-04-28T09:54:58.253Z,12.27
2019-04-28T09:55:58.249Z,12.31
2019-04-28T09:56:58.223Z,12.21
2019-04-28T09:57:58.228Z,12.24
2019-04-28T09:58:58.236Z,12.28
2019-04-28T09:59:58.207Z,12.28
2019-04-28T10:00:58.195Z,12.27
2019-04-28T10:01:58.168Z,12.21
2019-04-28T10:02:58.166Z,12.32
2019-04-28T10:03:58.177Z,12.34
2019-04-28T10:04:58.139Z,12.27
2019-04-28T10:05:58.124Z,12.35
2019-04-28T10:06:58.117Z,12.38
2019-04-28T10:07:58.106Z,12.42
2019-04-28T10:08:58.142Z,12.37
2019-04-28T10:09:58.077Z,12.24
2019-04-28T10:10:58.073Z,12.17
2019-04-28T10:11:58.055Z,12.19
2019-04-28T10:12:58.051Z,12.14
2019-04-28T10:13:58.079Z,12.17
2019-04-28T10:14:58.031Z,12.19
2019-04-28T10:15:58.008Z,12.12
2019-04-28T10:16:58.010Z,12.07
2019-04-28T10:17:57.985Z,12.01
2019-04-28T10:18:58.022Z,11.90
2019-04-28T10:19:57.968Z,12.02
2019-04-28T10:20:57.966Z,11.94
2019-04-28T10:21:57.947Z,11.96
2019-04-28T10:22:57.940Z,11.94
2019-04-28T10:23:57.982Z,11.82
2019-04-28T10:24:57.913Z,11.79
2019-04-28T10:25:57.912Z,11.78
2019-04-28T10:26:57.906Z,11.73
2019-04-28T10:27:57.868Z,11.73
2019-04-28T10:28:57.905Z,11.61
2019-04-28T10:29:57.853Z,11.69
2019-04-28T10:30:57.841Z,11.65
2019-04-28T10:31:57.836Z,11.69
2019-04-28T10:32:57.820Z,11.79
2019-04-28T10:33:57.838Z,11.94
2019-04-28T10:34:57.795Z,12.01
2019-04-28T10:35:57.790Z,11.99
2019-04-28T10:36:57.770Z,11.86
2019-04-28T10:37:57.761Z,11.88
2019-04-28T10:38:57.742Z,11.98
2019-04-28T10:39:57.789Z,11.86
2019-04-28T10:40:57.730Z,11.86
2019-04-28T10:41:57.711Z,11.95
2019-04-28T10:42:57.711Z,11.88
2019-04-28T10:43:57.691Z,12.09
2019-04-28T10:44:57.724Z,12.16
2019-04-28T10:45:57.679Z,12.21
2019-04-28T10:46:57.654Z,12.23
2019-04-28T10:47:57.646Z,12.34
2019-04-28T10:48:57.635Z,12.39
2019-04-28T10:49:57.657Z,12.39
2019-04-28T10:50:57.619Z,12.53
2019-04-28T10:51:59.622Z,12.54
2019-04-28T10:52:57.589Z,12.56
2019-04-28T10:53:57.582Z,12.53
2019-04-28T10:54:57.599Z,12.68
2019-04-28T10:55:57.578Z,12.62
2019-04-28T10:56:57.545Z,12.75
2019-04-28T10:57:57.527Z,12.68
2019-04-28T10:58:57.524Z,12.65
2019-04-28T10:59:57.557Z,12.72
2019-04-28T11:00:57.498Z,12.82
2019-04-28T11:01:57.483Z,12.93
2019-04-28T11:02:57.497Z,13.69
2019-04-28T11:03:57.466Z,13.81
2019-04-28T11:05:07.747Z,14.04
2019-04-28T11:05:58.435Z,14.29
2019-04-28T11:06:57.440Z,14.02
2019-04-28T11:07:57.429Z,13.78
2019-04-28T11:08:57.410Z,13.97
2019-04-28T11:09:57.442Z,14.51
2019-04-28T11:10:57.382Z,14.72
2019-04-28T11:11:57.371Z,14.86
2019-04-28T11:12:57.385Z,15.53
2019-04-28T11:13:57.356Z,16.57
2019-04-28T11:14:57.376Z,17.40
2019-04-28T11:15:57.332Z,15.92
2019-04-28T11:16:57.320Z,15.41
2019-04-28T11:17:57.308Z,16.64
2019-04-28T11:18:57.314Z,15.86
2019-04-28T11:19:57.298Z,15.50
2019-04-28T11:20:57.309Z,16.31
2019-04-28T11:21:57.261Z,15.76
2019-04-28T11:22:57.252Z,15.44
2019-04-28T11:23:57.235Z,15.41
2019-04-28T11:24:57.242Z,15.19
2019-04-28T11:25:57.271Z,14.95
2019-04-28T11:26:57.203Z,14.73
2019-04-28T11:27:57.194Z,14.45
2019-04-28T11:28:57.183Z,14.21
2019-04-28T11:29:57.181Z,13.96
2019-04-28T11:30:57.196Z,13.78
2019-04-28T11:31:57.151Z,13.64
2019-04-28T11:32:57.147Z,13.57
2019-04-28T11:33:59.891Z,13.57
2019-04-28T11:34:57.112Z,13.59
2019-04-28T11:35:57.133Z,13.48
2019-04-28T11:36:57.090Z,13.45
2019-04-28T11:37:57.084Z,13.42
2019-04-28T11:38:57.080Z,13.51
2019-04-28T11:39:57.057Z,13.45
2019-04-28T11:40:57.095Z,13.54
2019-04-28T11:41:57.046Z,13.55
2019-04-28T11:42:57.025Z,13.63
2019-04-28T11:43:57.023Z,13.71
2019-04-28T11:44:57.015Z,13.67
2019-04-28T11:45:57.023Z,13.77
2019-04-28T11:46:56.980Z,13.69
2019-04-28T11:47:56.976Z,13.87
2019-04-28T11:48:56.962Z,14.00
2019-04-28T11:49:56.950Z,13.81
2019-04-28T11:50:56.978Z,13.81
2019-04-28T11:51:56.930Z,13.82
2019-04-28T11:52:56.918Z,13.84
2019-04-28T11:53:56.908Z,13.77
2019-04-28T11:54:56.891Z,13.59
2019-04-28T11:55:56.917Z,13.54
2019-04-28T11:56:56.877Z,13.52
2019-04-28T11:57:56.856Z,13.48
2019-04-28T11:58:56.844Z,13.48
2019-04-28T11:59:56.845Z,13.49
2019-04-28T12:00:56.856Z,13.44
2019-04-28T12:01:56.811Z,13.39
2019-04-28T12:02:56.808Z,13.26
2019-04-28T12:03:56.791Z,13.15
2019-04-28T12:04:56.777Z,12.97
2019-04-28T12:05:56.840Z,12.95
2019-04-28T12:06:56.793Z,12.96
2019-04-28T12:07:56.745Z,13.03
2019-04-28T12:08:56.730Z,13.07
2019-04-28T12:10:04.875Z,13.05
2019-04-28T12:10:57.768Z,13.11
2019-04-28T12:11:56.705Z,13.15
2019-04-28T12:12:56.694Z,13.17
2019-04-28T12:13:56.685Z,13.20
2019-04-28T12:14:56.666Z,13.07
2019-04-28T12:15:56.653Z,12.83
2019-04-28T12:16:56.688Z,12.79
2019-04-28T12:17:56.641Z,12.82
2019-04-28T12:18:56.623Z,12.86
2019-04-28T12:19:56.615Z,12.77
2019-04-28T12:20:56.603Z,12.74
2019-04-28T12:21:56.623Z,12.77
2019-04-28T12:22:56.581Z,12.74
2019-04-28T12:23:56.572Z,12.77
2019-04-28T12:24:56.558Z,12.79
2019-04-28T12:25:56.545Z,12.62
2019-04-28T12:26:56.604Z,12.74
2019-04-28T12:27:56.525Z,12.77
2019-04-28T12:28:56.530Z,12.72
2019-04-28T12:29:56.496Z,12.75
2019-04-28T12:30:56.496Z,12.82
2019-04-28T12:31:56.529Z,12.87
2019-04-28T12:32:56.470Z,12.90
2019-04-28T12:33:56.456Z,13.01
2019-04-28T12:34:56.447Z,13.12
2019-04-28T12:35:56.455Z,13.26
2019-04-28T12:36:56.452Z,13.36
2019-04-28T12:37:56.414Z,13.36
2019-04-28T12:38:56.394Z,13.39
2019-04-28T12:39:56.429Z,13.36
2019-04-28T12:40:56.379Z,13.44
2019-04-28T12:41:56.397Z,13.39
2019-04-28T12:42:56.352Z,13.42
2019-04-28T12:43:56.349Z,13.44
2019-04-28T12:44:56.352Z,13.57
2019-04-28T12:45:56.322Z,13.59
2019-04-28T12:46:56.347Z,13.66
2019-04-28T12:47:56.294Z,13.57
2019-04-28T12:48:56.301Z,13.63
2019-04-28T12:49:56.279Z,13.73
2019-04-28T12:50:56.262Z,13.62
2019-04-28T12:51:56.299Z,13.63
2019-04-28T12:52:56.236Z,13.57
2019-04-28T12:53:56.233Z,13.48
2019-04-28T12:54:56.217Z,13.36
2019-04-28T12:55:56.209Z,13.32
2019-04-28T12:56:56.190Z,13.26